sensor_id;sensor_type;location;lat;lon;timestamp;P1;durP1;ratioP1;P2;durP2;ratioP2
71172;SDS011;58875;51.996;4.504;2023-11-22T00:01:15;12.97;;;12.78;;
71172;SDS011;58875;51.996;4.504;2023-11-22T00:03:56;13.24;;;12.98;;
71172;SDS011;58875;51.996;4.504;2023-11-22T00:06:27;12.73;;;12.61;;
71172;SDS011;58875;51.996;4.504;2023-11-22T00:08:55;12.31;;;12.26;;
71172;SDS011;58875;51.996;4.504;2023-11-22T00:11:23;12.25;;;12.18;;
71172;SDS011;58875;51.996;4.504;2023-11-22T00:13:49;13.56;;;13.31;;
71172;SDS011;58875;51.996;4.504;2023-11-22T00:16:23;12.86;;;12.64;;
71172;SDS011;58875;51.996;4.504;2023-11-22T00:18:52;12.99;;;12.74;;
71172;SDS011;58875;51.996;4.504;2023-11-22T00:21:39;12.70;;;12.52;;
71172;SDS011;58875;51.996;4.504;2023-11-22T00:24:07;12.72;;;12.48;;
71172;SDS011;58875;51.996;4.504;2023-11-22T00:29:50;12.86;;;12.80;;
71172;SDS011;58875;51.996;4.504;2023-11-22T00:32:19;12.37;;;12.14;;
71172;SDS011;58875;51.996;4.504;2023-11-22T00:34:44;12.25;;;12.07;;
71172;SDS011;58875;51.996;4.504;2023-11-22T00:37:12;12.66;;;12.50;;
71172;SDS011;58875;51.996;4.504;2023-11-22T00:39:41;12.31;;;12.22;;
71172;SDS011;58875;51.996;4.504;2023-11-22T00:42:07;12.87;;;12.59;;
71172;SDS011;58875;51.996;4.504;2023-11-22T00:44:33;12.36;;;12.18;;
71172;SDS011;58875;51.996;4.504;2023-11-22T00:46:59;12.34;;;12.30;;
71172;SDS011;58875;51.996;4.504;2023-11-22T00:49:25;12.98;;;12.90;;
71172;SDS011;58875;51.996;4.504;2023-11-22T00:51:50;12.55;;;12.47;;
71172;SDS011;58875;51.996;4.504;2023-11-22T00:54:19;12.68;;;12.49;;
71172;SDS011;58875;51.996;4.504;2023-11-22T00:56:48;13.04;;;12.81;;
71172;SDS011;58875;51.996;4.504;2023-11-22T00:59:14;12.45;;;12.31;;
71172;SDS011;58875;51.996;4.504;2023-11-22T01:01:45;12.63;;;12.30;;
71172;SDS011;58875;51.996;4.504;2023-11-22T01:04:11;13.12;;;12.88;;
71172;SDS011;58875;51.996;4.504;2023-11-22T01:06:43;13.23;;;13.00;;
71172;SDS011;58875;51.996;4.504;2023-11-22T01:09:19;12.85;;;12.73;;
71172;SDS011;58875;51.996;4.504;2023-11-22T01:12:09;12.30;;;12.09;;
71172;SDS011;58875;51.996;4.504;2023-11-22T01:14:41;12.76;;;12.59;;
71172;SDS011;58875;51.996;4.504;2023-11-22T01:17:09;12.55;;;12.34;;
71172;SDS011;58875;51.996;4.504;2023-11-22T01:19:38;12.33;;;12.21;;
71172;SDS011;58875;51.996;4.504;2023-11-22T01:22:10;11.99;;;11.80;;
71172;SDS011;58875;51.996;4.504;2023-11-22T01:24:40;12.46;;;12.23;;
71172;SDS011;58875;51.996;4.504;2023-11-22T01:27:06;12.32;;;12.13;;
71172;SDS011;58875;51.996;4.504;2023-11-22T01:29:31;12.38;;;12.19;;
71172;SDS011;58875;51.996;4.504;2023-11-22T01:31:57;12.53;;;12.40;;
71172;SDS011;58875;51.996;4.504;2023-11-22T01:34:23;12.15;;;11.90;;
71172;SDS011;58875;51.996;4.504;2023-11-22T01:36:49;12.26;;;12.06;;
71172;SDS011;58875;51.996;4.504;2023-11-22T01:39:15;12.84;;;12.65;;
71172;SDS011;58875;51.996;4.504;2023-11-22T01:41:43;13.11;;;12.84;;
71172;SDS011;58875;51.996;4.504;2023-11-22T01:44:10;12.65;;;12.43;;
71172;SDS011;58875;51.996;4.504;2023-11-22T01:46:37;12.16;;;12.01;;
71172;SDS011;58875;51.996;4.504;2023-11-22T01:49:04;11.92;;;11.87;;
71172;SDS011;58875;51.996;4.504;2023-11-22T01:51:34;11.93;;;11.69;;
71172;SDS011;58875;51.996;4.504;2023-11-22T01:53:59;12.16;;;11.97;;
71172;SDS011;58875;51.996;4.504;2023-11-22T01:56:26;11.55;;;11.37;;
71172;SDS011;58875;51.996;4.504;2023-11-22T01:58:54;11.33;;;11.22;;
71172;SDS011;58875;51.996;4.504;2023-11-22T02:01:21;11.94;;;11.83;;
71172;SDS011;58875;51.996;4.504;2023-11-22T02:03:47;11.57;;;11.49;;
71172;SDS011;58875;51.996;4.504;2023-11-22T02:06:14;11.58;;;11.37;;
71172;SDS011;58875;51.996;4.504;2023-11-22T02:08:41;11.79;;;11.61;;
71172;SDS011;58875;51.996;4.504;2023-11-22T02:11:10;11.45;;;11.27;;
71172;SDS011;58875;51.996;4.504;2023-11-22T02:13:36;11.39;;;11.26;;
71172;SDS011;58875;51.996;4.504;2023-11-22T02:16:02;11.41;;;11.40;;
71172;SDS011;58875;51.996;4.504;2023-11-22T02:18:28;11.49;;;11.39;;
71172;SDS011;58875;51.996;4.504;2023-11-22T02:20:57;11.73;;;11.61;;
71172;SDS011;58875;51.996;4.504;2023-11-22T02:23:23;11.50;;;11.40;;
71172;SDS011;58875;51.996;4.504;2023-11-22T02:25:48;11.46;;;11.31;;
71172;SDS011;58875;51.996;4.504;2023-11-22T02:28:14;12.13;;;12.00;;
71172;SDS011;58875;51.996;4.504;2023-11-22T02:30:40;11.69;;;11.54;;
71172;SDS011;58875;51.996;4.504;2023-11-22T02:33:05;11.07;;;10.99;;
71172;SDS011;58875;51.996;4.504;2023-11-22T02:35:31;11.39;;;11.23;;
71172;SDS011;58875;51.996;4.504;2023-11-22T02:37:58;11.33;;;11.19;;
71172;SDS011;58875;51.996;4.504;2023-11-22T02:40:24;11.68;;;11.60;;
71172;SDS011;58875;51.996;4.504;2023-11-22T02:42:50;11.13;;;11.01;;
71172;SDS011;58875;51.996;4.504;2023-11-22T02:45:18;11.01;;;10.97;;
71172;SDS011;58875;51.996;4.504;2023-11-22T02:47:48;11.18;;;11.06;;
71172;SDS011;58875;51.996;4.504;2023-11-22T02:50:19;11.69;;;11.52;;
71172;SDS011;58875;51.996;4.504;2023-11-22T02:52:44;11.29;;;11.15;;
71172;SDS011;58875;51.996;4.504;2023-11-22T02:55:10;11.76;;;11.40;;
71172;SDS011;58875;51.996;4.504;2023-11-22T02:57:36;11.62;;;11.44;;
71172;SDS011;58875;51.996;4.504;2023-11-22T03:00:06;12.10;;;11.88;;
71172;SDS011;58875;51.996;4.504;2023-11-22T03:02:38;11.49;;;11.44;;
71172;SDS011;58875;51.996;4.504;2023-11-22T03:05:07;11.58;;;11.47;;
71172;SDS011;58875;51.996;4.504;2023-11-22T03:07:35;11.54;;;11.24;;
71172;SDS011;58875;51.996;4.504;2023-11-22T03:10:02;11.31;;;11.17;;
71172;SDS011;58875;51.996;4.504;2023-11-22T03:12:29;11.31;;;11.23;;
71172;SDS011;58875;51.996;4.504;2023-11-22T03:14:54;11.34;;;11.23;;
71172;SDS011;58875;51.996;4.504;2023-11-22T03:17:24;11.65;;;11.49;;
71172;SDS011;58875;51.996;4.504;2023-11-22T03:19:56;11.39;;;11.24;;
71172;SDS011;58875;51.996;4.504;2023-11-22T03:22:23;11.46;;;11.34;;
71172;SDS011;58875;51.996;4.504;2023-11-22T03:24:49;11.60;;;11.28;;
71172;SDS011;58875;51.996;4.504;2023-11-22T03:27:18;11.10;;;10.94;;
71172;SDS011;58875;51.996;4.504;2023-11-22T03:29:43;11.31;;;11.16;;
71172;SDS011;58875;51.996;4.504;2023-11-22T03:32:11;11.54;;;11.37;;
71172;SDS011;58875;51.996;4.504;2023-11-22T03:34:37;11.34;;;11.19;;
71172;SDS011;58875;51.996;4.504;2023-11-22T03:37:02;11.87;;;11.61;;
71172;SDS011;58875;51.996;4.504;2023-11-22T03:39:28;11.15;;;10.94;;
71172;SDS011;58875;51.996;4.504;2023-11-22T03:41:53;11.00;;;10.90;;
71172;SDS011;58875;51.996;4.504;2023-11-22T03:44:19;10.54;;;10.51;;
71172;SDS011;58875;51.996;4.504;2023-11-22T03:46:44;10.86;;;10.73;;
71172;SDS011;58875;51.996;4.504;2023-11-22T03:49:10;10.63;;;10.50;;
71172;SDS011;58875;51.996;4.504;2023-11-22T03:51:38;10.70;;;10.55;;
71172;SDS011;58875;51.996;4.504;2023-11-22T03:54:04;11.30;;;11.11;;
71172;SDS011;58875;51.996;4.504;2023-11-22T03:56:31;11.23;;;11.11;;
71172;SDS011;58875;51.996;4.504;2023-11-22T03:58:56;10.73;;;10.55;;
71172;SDS011;58875;51.996;4.504;2023-11-22T04:01:25;11.29;;;11.14;;
71172;SDS011;58875;51.996;4.504;2023-11-22T04:03:50;11.66;;;11.47;;
71172;SDS011;58875;51.996;4.504;2023-11-22T04:06:16;11.46;;;11.15;;
71172;SDS011;58875;51.996;4.504;2023-11-22T04:08:49;11.39;;;11.22;;
71172;SDS011;58875;51.996;4.504;2023-11-22T04:11:15;11.01;;;10.99;;
71172;SDS011;58875;51.996;4.504;2023-11-22T04:13:44;10.90;;;10.83;;
71172;SDS011;58875;51.996;4.504;2023-11-22T04:16:10;10.85;;;10.71;;
71172;SDS011;58875;51.996;4.504;2023-11-22T04:18:39;11.53;;;11.36;;
71172;SDS011;58875;51.996;4.504;2023-11-22T04:21:11;11.72;;;11.44;;
71172;SDS011;58875;51.996;4.504;2023-11-22T04:23:39;11.47;;;11.27;;
71172;SDS011;58875;51.996;4.504;2023-11-22T04:26:08;11.41;;;11.17;;
71172;SDS011;58875;51.996;4.504;2023-11-22T04:28:41;11.33;;;11.19;;
71172;SDS011;58875;51.996;4.504;2023-11-22T04:31:07;11.55;;;11.41;;
71172;SDS011;58875;51.996;4.504;2023-11-22T04:33:36;11.48;;;11.30;;
71172;SDS011;58875;51.996;4.504;2023-11-22T04:36:05;12.21;;;11.79;;
71172;SDS011;58875;51.996;4.504;2023-11-22T04:38:32;12.49;;;12.21;;
71172;SDS011;58875;51.996;4.504;2023-11-22T04:40:59;12.71;;;12.50;;
71172;SDS011;58875;51.996;4.504;2023-11-22T04:43:25;13.23;;;12.91;;
71172;SDS011;58875;51.996;4.504;2023-11-22T04:45:51;13.46;;;13.07;;
71172;SDS011;58875;51.996;4.504;2023-11-22T04:48:16;13.14;;;12.94;;
71172;SDS011;58875;51.996;4.504;2023-11-22T04:50:42;13.06;;;12.96;;
71172;SDS011;58875;51.996;4.504;2023-11-22T04:53:08;13.47;;;13.31;;
71172;SDS011;58875;51.996;4.504;2023-11-22T04:55:35;12.84;;;12.75;;
71172;SDS011;58875;51.996;4.504;2023-11-22T04:58:00;13.50;;;13.20;;
71172;SDS011;58875;51.996;4.504;2023-11-22T05:00:26;13.03;;;12.80;;
71172;SDS011;58875;51.996;4.504;2023-11-22T05:02:51;13.99;;;13.77;;
71172;SDS011;58875;51.996;4.504;2023-11-22T05:05:17;13.63;;;13.39;;
71172;SDS011;58875;51.996;4.504;2023-11-22T05:07:42;14.18;;;13.85;;
71172;SDS011;58875;51.996;4.504;2023-11-22T05:10:09;13.73;;;13.42;;
71172;SDS011;58875;51.996;4.504;2023-11-22T05:12:35;13.97;;;13.71;;
71172;SDS011;58875;51.996;4.504;2023-11-22T05:15:01;13.65;;;13.44;;
71172;SDS011;58875;51.996;4.504;2023-11-22T05:17:27;13.71;;;13.42;;
71172;SDS011;58875;51.996;4.504;2023-11-22T05:19:53;14.00;;;13.66;;
71172;SDS011;58875;51.996;4.504;2023-11-22T05:22:19;13.48;;;13.14;;
71172;SDS011;58875;51.996;4.504;2023-11-22T05:24:44;13.69;;;13.44;;
71172;SDS011;58875;51.996;4.504;2023-11-22T05:27:10;13.29;;;13.13;;
71172;SDS011;58875;51.996;4.504;2023-11-22T05:29:36;13.27;;;13.01;;
71172;SDS011;58875;51.996;4.504;2023-11-22T05:32:02;14.22;;;13.86;;
71172;SDS011;58875;51.996;4.504;2023-11-22T05:34:31;14.01;;;13.75;;
71172;SDS011;58875;51.996;4.504;2023-11-22T05:36:57;13.55;;;13.29;;
71172;SDS011;58875;51.996;4.504;2023-11-22T05:39:23;14.17;;;13.88;;
71172;SDS011;58875;51.996;4.504;2023-11-22T05:41:49;14.41;;;14.17;;
71172;SDS011;58875;51.996;4.504;2023-11-22T05:44:15;14.27;;;14.08;;
71172;SDS011;58875;51.996;4.504;2023-11-22T05:46:41;14.82;;;14.46;;
71172;SDS011;58875;51.996;4.504;2023-11-22T05:49:07;14.82;;;14.47;;
71172;SDS011;58875;51.996;4.504;2023-11-22T05:51:32;14.54;;;14.19;;
71172;SDS011;58875;51.996;4.504;2023-11-22T05:53:59;15.02;;;14.77;;
71172;SDS011;58875;51.996;4.504;2023-11-22T05:56:25;15.12;;;14.85;;
71172;SDS011;58875;51.996;4.504;2023-11-22T05:58:51;15.48;;;14.81;;
71172;SDS011;58875;51.996;4.504;2023-11-22T06:01:17;15.33;;;14.96;;
71172;SDS011;58875;51.996;4.504;2023-11-22T06:03:42;15.12;;;14.69;;
71172;SDS011;58875;51.996;4.504;2023-11-22T06:06:08;15.77;;;15.50;;
71172;SDS011;58875;51.996;4.504;2023-11-22T06:08:33;15.31;;;14.99;;
71172;SDS011;58875;51.996;4.504;2023-11-22T06:10:59;15.90;;;15.58;;
71172;SDS011;58875;51.996;4.504;2023-11-22T06:13:28;15.70;;;15.42;;
71172;SDS011;58875;51.996;4.504;2023-11-22T06:15:54;15.79;;;15.49;;
71172;SDS011;58875;51.996;4.504;2023-11-22T06:18:19;15.82;;;15.47;;
71172;SDS011;58875;51.996;4.504;2023-11-22T06:20:45;16.27;;;15.96;;
71172;SDS011;58875;51.996;4.504;2023-11-22T06:23:12;16.50;;;16.15;;
71172;SDS011;58875;51.996;4.504;2023-11-22T06:25:38;16.96;;;16.44;;
71172;SDS011;58875;51.996;4.504;2023-11-22T06:28:07;16.46;;;16.19;;
71172;SDS011;58875;51.996;4.504;2023-11-22T06:30:39;16.62;;;16.26;;
71172;SDS011;58875;51.996;4.504;2023-11-22T06:33:04;17.01;;;16.68;;
71172;SDS011;58875;51.996;4.504;2023-11-22T06:35:30;16.96;;;16.49;;
71172;SDS011;58875;51.996;4.504;2023-11-22T06:37:55;16.86;;;16.33;;
71172;SDS011;58875;51.996;4.504;2023-11-22T06:40:21;17.45;;;16.72;;
71172;SDS011;58875;51.996;4.504;2023-11-22T06:42:46;17.77;;;17.02;;
71172;SDS011;58875;51.996;4.504;2023-11-22T06:45:12;17.06;;;16.65;;
71172;SDS011;58875;51.996;4.504;2023-11-22T06:47:42;17.77;;;17.05;;
71172;SDS011;58875;51.996;4.504;2023-11-22T06:50:08;16.94;;;16.49;;
71172;SDS011;58875;51.996;4.504;2023-11-22T06:52:38;18.11;;;17.38;;
71172;SDS011;58875;51.996;4.504;2023-11-22T06:55:05;17.71;;;17.11;;
71172;SDS011;58875;51.996;4.504;2023-11-22T06:57:33;17.49;;;17.06;;
71172;SDS011;58875;51.996;4.504;2023-11-22T07:00:02;17.85;;;17.33;;
71172;SDS011;58875;51.996;4.504;2023-11-22T07:02:35;17.24;;;16.93;;
71172;SDS011;58875;51.996;4.504;2023-11-22T07:05:02;17.71;;;17.30;;
71172;SDS011;58875;51.996;4.504;2023-11-22T07:07:37;19.05;;;18.50;;
71172;SDS011;58875;51.996;4.504;2023-11-22T07:10:03;20.91;;;20.20;;
71172;SDS011;58875;51.996;4.504;2023-11-22T07:12:31;20.31;;;19.93;;
71172;SDS011;58875;51.996;4.504;2023-11-22T07:14:59;19.09;;;18.52;;
71172;SDS011;58875;51.996;4.504;2023-11-22T07:17:25;18.80;;;18.28;;
71172;SDS011;58875;51.996;4.504;2023-11-22T07:19:54;19.19;;;18.87;;
71172;SDS011;58875;51.996;4.504;2023-11-22T07:22:20;19.81;;;19.45;;
71172;SDS011;58875;51.996;4.504;2023-11-22T07:24:48;19.29;;;18.89;;
71172;SDS011;58875;51.996;4.504;2023-11-22T07:27:19;18.18;;;17.84;;
71172;SDS011;58875;51.996;4.504;2023-11-22T07:29:45;17.80;;;17.50;;
71172;SDS011;58875;51.996;4.504;2023-11-22T07:32:12;18.17;;;17.70;;
71172;SDS011;58875;51.996;4.504;2023-11-22T07:34:38;17.91;;;17.29;;
71172;SDS011;58875;51.996;4.504;2023-11-22T07:37:05;17.54;;;17.12;;
71172;SDS011;58875;51.996;4.504;2023-11-22T07:39:34;18.04;;;17.48;;
71172;SDS011;58875;51.996;4.504;2023-11-22T07:42:01;17.82;;;17.15;;
71172;SDS011;58875;51.996;4.504;2023-11-22T07:44:27;17.55;;;17.13;;
71172;SDS011;58875;51.996;4.504;2023-11-22T07:46:53;17.41;;;16.93;;
71172;SDS011;58875;51.996;4.504;2023-11-22T07:49:22;16.93;;;16.48;;
71172;SDS011;58875;51.996;4.504;2023-11-22T07:51:50;17.86;;;17.23;;
71172;SDS011;58875;51.996;4.504;2023-11-22T07:54:18;19.03;;;17.98;;
71172;SDS011;58875;51.996;4.504;2023-11-22T07:56:47;17.95;;;17.28;;
71172;SDS011;58875;51.996;4.504;2023-11-22T07:59:14;17.49;;;16.90;;
71172;SDS011;58875;51.996;4.504;2023-11-22T08:01:43;17.86;;;17.35;;
71172;SDS011;58875;51.996;4.504;2023-11-22T08:04:10;17.93;;;17.49;;
71172;SDS011;58875;51.996;4.504;2023-11-22T08:06:36;17.79;;;17.31;;
71172;SDS011;58875;51.996;4.504;2023-11-22T08:09:02;18.39;;;17.81;;
71172;SDS011;58875;51.996;4.504;2023-11-22T08:11:29;18.98;;;18.50;;
71172;SDS011;58875;51.996;4.504;2023-11-22T08:13:55;23.94;;;22.81;;
71172;SDS011;58875;51.996;4.504;2023-11-22T08:16:24;28.78;;;26.64;;
71172;SDS011;58875;51.996;4.504;2023-11-22T08:18:51;22.95;;;22.04;;
71172;SDS011;58875;51.996;4.504;2023-11-22T08:21:16;21.69;;;20.76;;
71172;SDS011;58875;51.996;4.504;2023-11-22T08:23:43;23.39;;;22.34;;
71172;SDS011;58875;51.996;4.504;2023-11-22T08:26:12;25.52;;;24.22;;
71172;SDS011;58875;51.996;4.504;2023-11-22T08:28:37;23.85;;;22.86;;
71172;SDS011;58875;51.996;4.504;2023-11-22T08:31:04;23.26;;;22.64;;
71172;SDS011;58875;51.996;4.504;2023-11-22T08:33:32;21.83;;;21.24;;
71172;SDS011;58875;51.996;4.504;2023-11-22T08:35:58;20.33;;;19.68;;
71172;SDS011;58875;51.996;4.504;2023-11-22T08:38:26;20.51;;;19.82;;
71172;SDS011;58875;51.996;4.504;2023-11-22T08:40:52;21.68;;;21.20;;
71172;SDS011;58875;51.996;4.504;2023-11-22T08:43:17;25.27;;;24.83;;
71172;SDS011;58875;51.996;4.504;2023-11-22T08:45:48;22.14;;;21.83;;
71172;SDS011;58875;51.996;4.504;2023-11-22T08:48:14;21.65;;;21.50;;
71172;SDS011;58875;51.996;4.504;2023-11-22T08:50:40;20.70;;;20.34;;
71172;SDS011;58875;51.996;4.504;2023-11-22T08:53:06;19.46;;;19.10;;
71172;SDS011;58875;51.996;4.504;2023-11-22T08:55:32;19.75;;;19.30;;
71172;SDS011;58875;51.996;4.504;2023-11-22T08:57:59;19.87;;;19.31;;
71172;SDS011;58875;51.996;4.504;2023-11-22T09:00:24;20.07;;;19.44;;
71172;SDS011;58875;51.996;4.504;2023-11-22T09:02:53;20.73;;;20.02;;
71172;SDS011;58875;51.996;4.504;2023-11-22T09:05:20;20.59;;;20.23;;
71172;SDS011;58875;51.996;4.504;2023-11-22T09:07:47;20.60;;;19.99;;
71172;SDS011;58875;51.996;4.504;2023-11-22T09:10:13;20.44;;;19.78;;
71172;SDS011;58875;51.996;4.504;2023-11-22T09:12:40;19.28;;;18.86;;
71172;SDS011;58875;51.996;4.504;2023-11-22T09:15:07;20.05;;;19.39;;
71172;SDS011;58875;51.996;4.504;2023-11-22T09:17:37;19.41;;;18.97;;
71172;SDS011;58875;51.996;4.504;2023-11-22T09:20:11;19.42;;;18.96;;
71172;SDS011;58875;51.996;4.504;2023-11-22T09:22:45;20.48;;;19.73;;
71172;SDS011;58875;51.996;4.504;2023-11-22T09:25:31;20.25;;;19.68;;
71172;SDS011;58875;51.996;4.504;2023-11-22T09:27:58;20.30;;;19.65;;
71172;SDS011;58875;51.996;4.504;2023-11-22T09:30:28;20.18;;;19.43;;
71172;SDS011;58875;51.996;4.504;2023-11-22T09:33:06;20.84;;;20.08;;
71172;SDS011;58875;51.996;4.504;2023-11-22T09:35:36;20.42;;;19.69;;
71172;SDS011;58875;51.996;4.504;2023-11-22T09:38:03;20.76;;;19.72;;
71172;SDS011;58875;51.996;4.504;2023-11-22T09:40:40;20.56;;;19.60;;
71172;SDS011;58875;51.996;4.504;2023-11-22T09:43:09;20.04;;;19.27;;
71172;SDS011;58875;51.996;4.504;2023-11-22T09:45:35;20.71;;;19.93;;
71172;SDS011;58875;51.996;4.504;2023-11-22T09:48:03;20.64;;;19.91;;
71172;SDS011;58875;51.996;4.504;2023-11-22T09:50:40;20.11;;;19.63;;
71172;SDS011;58875;51.996;4.504;2023-11-22T09:53:31;20.36;;;19.81;;
71172;SDS011;58875;51.996;4.504;2023-11-22T09:55:59;21.06;;;20.22;;
71172;SDS011;58875;51.996;4.504;2023-11-22T09:58:27;20.67;;;19.93;;
71172;SDS011;58875;51.996;4.504;2023-11-22T10:00:56;20.55;;;20.12;;
71172;SDS011;58875;51.996;4.504;2023-11-22T10:03:23;20.97;;;20.20;;
71172;SDS011;58875;51.996;4.504;2023-11-22T10:05:49;21.32;;;20.38;;
71172;SDS011;58875;51.996;4.504;2023-11-22T10:08:17;20.24;;;19.70;;
71172;SDS011;58875;51.996;4.504;2023-11-22T10:10:43;20.63;;;20.06;;
71172;SDS011;58875;51.996;4.504;2023-11-22T10:13:13;20.71;;;20.07;;
71172;SDS011;58875;51.996;4.504;2023-11-22T10:15:38;20.41;;;19.80;;
71172;SDS011;58875;51.996;4.504;2023-11-22T10:18:04;20.98;;;20.23;;
71172;SDS011;58875;51.996;4.504;2023-11-22T10:20:42;20.76;;;19.99;;
71172;SDS011;58875;51.996;4.504;2023-11-22T10:23:08;21.23;;;20.20;;
71172;SDS011;58875;51.996;4.504;2023-11-22T10:25:48;20.79;;;19.92;;
71172;SDS011;58875;51.996;4.504;2023-11-22T10:28:19;20.61;;;19.84;;
71172;SDS011;58875;51.996;4.504;2023-11-22T10:30:46;19.71;;;19.18;;
71172;SDS011;58875;51.996;4.504;2023-11-22T10:33:14;19.01;;;18.66;;
71172;SDS011;58875;51.996;4.504;2023-11-22T10:35:44;19.47;;;19.01;;
71172;SDS011;58875;51.996;4.504;2023-11-22T10:38:14;19.03;;;18.45;;
71172;SDS011;58875;51.996;4.504;2023-11-22T10:40:41;19.46;;;18.92;;
71172;SDS011;58875;51.996;4.504;2023-11-22T10:43:13;19.17;;;18.57;;
71172;SDS011;58875;51.996;4.504;2023-11-22T10:45:41;18.93;;;18.34;;
71172;SDS011;58875;51.996;4.504;2023-11-22T10:48:11;19.21;;;18.38;;
71172;SDS011;58875;51.996;4.504;2023-11-22T10:50:41;18.65;;;17.96;;
71172;SDS011;58875;51.996;4.504;2023-11-22T10:53:08;18.44;;;17.90;;
71172;SDS011;58875;51.996;4.504;2023-11-22T10:55:46;17.24;;;16.89;;
71172;SDS011;58875;51.996;4.504;2023-11-22T10:58:14;17.10;;;16.59;;
71172;SDS011;58875;51.996;4.504;2023-11-22T11:00:42;16.73;;;16.17;;
71172;SDS011;58875;51.996;4.504;2023-11-22T11:03:14;16.08;;;15.65;;
71172;SDS011;58875;51.996;4.504;2023-11-22T11:06:05;16.17;;;15.80;;
71172;SDS011;58875;51.996;4.504;2023-11-22T11:08:33;16.51;;;16.07;;
71172;SDS011;58875;51.996;4.504;2023-11-22T11:11:04;15.73;;;15.43;;
71172;SDS011;58875;51.996;4.504;2023-11-22T11:13:31;15.40;;;15.09;;
71172;SDS011;58875;51.996;4.504;2023-11-22T11:15:57;15.12;;;14.74;;
71172;SDS011;58875;51.996;4.504;2023-11-22T11:18:24;15.37;;;15.01;;
71172;SDS011;58875;51.996;4.504;2023-11-22T11:20:56;15.21;;;14.74;;
71172;SDS011;58875;51.996;4.504;2023-11-22T11:23:28;15.73;;;15.45;;
71172;SDS011;58875;51.996;4.504;2023-11-22T11:25:57;16.01;;;15.62;;
71172;SDS011;58875;51.996;4.504;2023-11-22T11:28:41;15.76;;;15.37;;
71172;SDS011;58875;51.996;4.504;2023-11-22T11:31:09;16.59;;;16.11;;
71172;SDS011;58875;51.996;4.504;2023-11-22T11:33:52;16.26;;;15.86;;
71172;SDS011;58875;51.996;4.504;2023-11-22T11:38:54;16.77;;;16.21;;
71172;SDS011;58875;51.996;4.504;2023-11-22T11:41:34;17.19;;;16.60;;
71172;SDS011;58875;51.996;4.504;2023-11-22T11:44:03;17.46;;;17.13;;
71172;SDS011;58875;51.996;4.504;2023-11-22T11:46:32;17.27;;;17.10;;
71172;SDS011;58875;51.996;4.504;2023-11-22T11:48:58;18.30;;;17.95;;
71172;SDS011;58875;51.996;4.504;2023-11-22T11:51:31;19.91;;;19.20;;
71172;SDS011;58875;51.996;4.504;2023-11-22T11:53:56;17.76;;;17.36;;
71172;SDS011;58875;51.996;4.504;2023-11-22T11:56:22;16.28;;;15.94;;
71172;SDS011;58875;51.996;4.504;2023-11-22T11:58:51;15.42;;;14.94;;
71172;SDS011;58875;51.996;4.504;2023-11-22T12:01:17;13.51;;;13.25;;
71172;SDS011;58875;51.996;4.504;2023-11-22T12:03:48;14.55;;;14.25;;
71172;SDS011;58875;51.996;4.504;2023-11-22T12:06:14;14.56;;;14.32;;
71172;SDS011;58875;51.996;4.504;2023-11-22T12:08:41;15.25;;;14.94;;
71172;SDS011;58875;51.996;4.504;2023-11-22T12:11:07;15.58;;;15.28;;
71172;SDS011;58875;51.996;4.504;2023-11-22T12:13:33;14.73;;;14.47;;
71172;SDS011;58875;51.996;4.504;2023-11-22T12:16:14;14.78;;;14.49;;
71172;SDS011;58875;51.996;4.504;2023-11-22T12:21:13;14.36;;;13.87;;
71172;SDS011;58875;51.996;4.504;2023-11-22T12:23:40;13.51;;;13.38;;
71172;SDS011;58875;51.996;4.504;2023-11-22T12:26:14;13.83;;;13.69;;
71172;SDS011;58875;51.996;4.504;2023-11-22T12:28:41;13.66;;;13.42;;
71172;SDS011;58875;51.996;4.504;2023-11-22T12:31:14;13.75;;;13.54;;
71172;SDS011;58875;51.996;4.504;2023-11-22T12:33:40;13.09;;;12.85;;
71172;SDS011;58875;51.996;4.504;2023-11-22T12:36:08;12.98;;;12.85;;
71172;SDS011;58875;51.996;4.504;2023-11-22T12:38:41;12.82;;;12.73;;
71172;SDS011;58875;51.996;4.504;2023-11-22T12:41:07;12.65;;;12.44;;
71172;SDS011;58875;51.996;4.504;2023-11-22T12:43:33;12.81;;;12.65;;
71172;SDS011;58875;51.996;4.504;2023-11-22T12:46:02;12.49;;;12.26;;
71172;SDS011;58875;51.996;4.504;2023-11-22T12:48:39;13.16;;;12.96;;
71172;SDS011;58875;51.996;4.504;2023-11-22T12:51:14;12.73;;;12.64;;
71172;SDS011;58875;51.996;4.504;2023-11-22T12:53:42;13.69;;;13.46;;
71172;SDS011;58875;51.996;4.504;2023-11-22T12:56:07;13.12;;;13.03;;
71172;SDS011;58875;51.996;4.504;2023-11-22T12:58:34;12.76;;;12.64;;
71172;SDS011;58875;51.996;4.504;2023-11-22T13:00:59;12.92;;;12.80;;
71172;SDS011;58875;51.996;4.504;2023-11-22T13:03:26;13.67;;;13.56;;
71172;SDS011;58875;51.996;4.504;2023-11-22T13:05:52;14.71;;;14.43;;
71172;SDS011;58875;51.996;4.504;2023-11-22T13:08:18;14.52;;;14.27;;
71172;SDS011;58875;51.996;4.504;2023-11-22T13:10:47;14.88;;;14.52;;
71172;SDS011;58875;51.996;4.504;2023-11-22T13:13:25;15.33;;;15.07;;
71172;SDS011;58875;51.996;4.504;2023-11-22T13:15:55;15.20;;;15.07;;
71172;SDS011;58875;51.996;4.504;2023-11-22T13:18:22;15.92;;;15.68;;
71172;SDS011;58875;51.996;4.504;2023-11-22T13:20:47;17.00;;;16.32;;
71172;SDS011;58875;51.996;4.504;2023-11-22T13:23:15;16.06;;;15.62;;
71172;SDS011;58875;51.996;4.504;2023-11-22T13:25:41;16.78;;;16.16;;
71172;SDS011;58875;51.996;4.504;2023-11-22T13:28:07;16.10;;;15.72;;
71172;SDS011;58875;51.996;4.504;2023-11-22T13:30:33;16.21;;;15.86;;
71172;SDS011;58875;51.996;4.504;2023-11-22T13:33:00;15.93;;;15.68;;
71172;SDS011;58875;51.996;4.504;2023-11-22T13:35:25;17.78;;;17.06;;
71172;SDS011;58875;51.996;4.504;2023-11-22T13:37:56;17.81;;;17.14;;
71172;SDS011;58875;51.996;4.504;2023-11-22T13:40:23;17.22;;;16.76;;
71172;SDS011;58875;51.996;4.504;2023-11-22T13:42:55;16.81;;;16.53;;
71172;SDS011;58875;51.996;4.504;2023-11-22T13:45:21;16.52;;;16.18;;
71172;SDS011;58875;51.996;4.504;2023-11-22T13:47:49;17.27;;;16.94;;
71172;SDS011;58875;51.996;4.504;2023-11-22T13:50:17;17.01;;;16.82;;
71172;SDS011;58875;51.996;4.504;2023-11-22T13:52:52;16.43;;;16.28;;
71172;SDS011;58875;51.996;4.504;2023-11-22T13:55:18;17.24;;;16.86;;
71172;SDS011;58875;51.996;4.504;2023-11-22T13:57:48;16.83;;;16.65;;
71172;SDS011;58875;51.996;4.504;2023-11-22T14:00:16;17.21;;;17.04;;
71172;SDS011;58875;51.996;4.504;2023-11-22T14:02:53;17.49;;;17.16;;
71172;SDS011;58875;51.996;4.504;2023-11-22T14:05:31;17.31;;;17.10;;
71172;SDS011;58875;51.996;4.504;2023-11-22T14:07:58;16.89;;;16.63;;
71172;SDS011;58875;51.996;4.504;2023-11-22T14:10:25;16.65;;;16.47;;
71172;SDS011;58875;51.996;4.504;2023-11-22T14:12:51;16.75;;;16.49;;
71172;SDS011;58875;51.996;4.504;2023-11-22T14:15:17;17.59;;;17.29;;
71172;SDS011;58875;51.996;4.504;2023-11-22T14:17:44;17.29;;;16.97;;
71172;SDS011;58875;51.996;4.504;2023-11-22T14:20:14;17.33;;;17.02;;
71172;SDS011;58875;51.996;4.504;2023-11-22T14:22:40;17.25;;;16.97;;
71172;SDS011;58875;51.996;4.504;2023-11-22T14:25:07;17.41;;;17.06;;
71172;SDS011;58875;51.996;4.504;2023-11-22T14:27:40;17.96;;;17.58;;
71172;SDS011;58875;51.996;4.504;2023-11-22T14:30:13;18.33;;;17.92;;
71172;SDS011;58875;51.996;4.504;2023-11-22T14:32:40;18.46;;;18.11;;
71172;SDS011;58875;51.996;4.504;2023-11-22T14:35:07;18.91;;;18.60;;